sensor_id;sensor_type;location;lat;lon;timestamp;P1;durP1;ratioP1;P2;durP2;ratioP2
10651;SDS011;5374;42.742;23.266;2022-08-02T00:02:39;4.13;;;2.40;;
10651;SDS011;5374;42.742;23.266;2022-08-02T00:05:27;2.30;;;2.10;;
10651;SDS011;5374;42.742;23.266;2022-08-02T00:08:15;2.20;;;2.00;;
10651;SDS011;5374;42.742;23.266;2022-08-02T00:11:02;2.57;;;2.20;;
10651;SDS011;5374;42.742;23.266;2022-08-02T00:13:50;2.20;;;1.97;;
10651;SDS011;5374;42.742;23.266;2022-08-02T00:16:37;2.33;;;2.13;;
10651;SDS011;5374;42.742;23.266;2022-08-02T00:19:24;3.00;;;2.20;;
10651;SDS011;5374;42.742;23.266;2022-08-02T00:22:11;3.60;;;2.23;;
10651;SDS011;5374;42.742;23.266;2022-08-02T00:25:00;2.57;;;2.37;;
10651;SDS011;5374;42.742;23.266;2022-08-02T00:27:47;3.80;;;2.37;;
10651;SDS011;5374;42.742;23.266;2022-08-02T00:30:34;2.40;;;2.13;;
10651;SDS011;5374;42.742;23.266;2022-08-02T00:33:21;2.50;;;2.30;;
10651;SDS011;5374;42.742;23.266;2022-08-02T00:36:08;2.67;;;2.30;;
10651;SDS011;5374;42.742;23.266;2022-08-02T00:38:56;2.40;;;2.20;;
10651;SDS011;5374;42.742;23.266;2022-08-02T00:41:45;2.40;;;2.20;;
10651;SDS011;5374;42.742;23.266;2022-08-02T00:44:33;3.20;;;2.37;;
10651;SDS011;5374;42.742;23.266;2022-08-02T00:47:21;2.90;;;2.50;;
10651;SDS011;5374;42.742;23.266;2022-08-02T00:50:08;2.93;;;2.57;;
10651;SDS011;5374;42.742;23.266;2022-08-02T00:52:55;2.30;;;2.10;;
10651;SDS011;5374;42.742;23.266;2022-08-02T00:55:43;2.73;;;2.47;;
10651;SDS011;5374;42.742;23.266;2022-08-02T00:58:32;3.33;;;2.57;;
10651;SDS011;5374;42.742;23.266;2022-08-02T01:01:19;2.67;;;2.47;;
10651;SDS011;5374;42.742;23.266;2022-08-02T01:04:22;2.80;;;2.50;;
10651;SDS011;5374;42.742;23.266;2022-08-02T01:07:11;2.60;;;2.40;;
10651;SDS011;5374;42.742;23.266;2022-08-02T01:09:58;2.80;;;2.47;;
10651;SDS011;5374;42.742;23.266;2022-08-02T01:12:46;5.43;;;2.83;;
10651;SDS011;5374;42.742;23.266;2022-08-02T01:15:37;2.60;;;2.33;;
10651;SDS011;5374;42.742;23.266;2022-08-02T01:18:33;3.40;;;2.60;;
10651;SDS011;5374;42.742;23.266;2022-08-02T01:24:54;2.90;;;2.70;;
10651;SDS011;5374;42.742;23.266;2022-08-02T01:31:13;2.97;;;2.77;;
10651;SDS011;5374;42.742;23.266;2022-08-02T01:34:08;3.20;;;2.90;;
10651;SDS011;5374;42.742;23.266;2022-08-02T01:37:02;3.17;;;2.73;;
10651;SDS011;5374;42.742;23.266;2022-08-02T01:39:58;2.90;;;2.67;;
10651;SDS011;5374;42.742;23.266;2022-08-02T01:42:48;3.87;;;2.83;;
10651;SDS011;5374;42.742;23.266;2022-08-02T01:45:40;4.23;;;3.07;;
10651;SDS011;5374;42.742;23.266;2022-08-02T01:48:29;3.10;;;2.80;;
10651;SDS011;5374;42.742;23.266;2022-08-02T01:51:19;3.37;;;2.97;;
10651;SDS011;5374;42.742;23.266;2022-08-02T01:54:29;4.37;;;3.30;;
10651;SDS011;5374;42.742;23.266;2022-08-02T01:57:18;3.10;;;2.80;;
10651;SDS011;5374;42.742;23.266;2022-08-02T02:00:09;3.17;;;2.87;;
10651;SDS011;5374;42.742;23.266;2022-08-02T02:02:58;3.10;;;2.80;;
10651;SDS011;5374;42.742;23.266;2022-08-02T02:05:48;3.30;;;3.00;;
10651;SDS011;5374;42.742;23.266;2022-08-02T02:08:38;4.20;;;3.10;;
10651;SDS011;5374;42.742;23.266;2022-08-02T02:11:27;3.67;;;2.90;;
10651;SDS011;5374;42.742;23.266;2022-08-02T02:14:15;3.23;;;2.50;;
10651;SDS011;5374;42.742;23.266;2022-08-02T02:17:04;3.40;;;3.03;;
10651;SDS011;5374;42.742;23.266;2022-08-02T02:19:55;3.20;;;2.90;;
10651;SDS011;5374;42.742;23.266;2022-08-02T02:22:45;2.93;;;2.67;;
10651;SDS011;5374;42.742;23.266;2022-08-02T02:25:33;3.23;;;2.93;;
10651;SDS011;5374;42.742;23.266;2022-08-02T02:28:22;3.47;;;2.90;;
10651;SDS011;5374;42.742;23.266;2022-08-02T02:31:14;4.60;;;3.03;;
10651;SDS011;5374;42.742;23.266;2022-08-02T02:34:04;3.30;;;3.00;;
10651;SDS011;5374;42.742;23.266;2022-08-02T02:36:58;3.27;;;2.87;;
10651;SDS011;5374;42.742;23.266;2022-08-02T02:39:48;3.47;;;2.97;;
10651;SDS011;5374;42.742;23.266;2022-08-02T02:42:39;3.17;;;2.90;;
10651;SDS011;5374;42.742;23.266;2022-08-02T02:45:28;3.43;;;3.13;;
10651;SDS011;5374;42.742;23.266;2022-08-02T02:48:17;3.50;;;2.77;;
10651;SDS011;5374;42.742;23.266;2022-08-02T02:51:05;3.40;;;2.90;;
10651;SDS011;5374;42.742;23.266;2022-08-02T02:53:54;5.33;;;2.87;;
10651;SDS011;5374;42.742;23.266;2022-08-02T02:56:43;4.33;;;3.03;;
10651;SDS011;5374;42.742;23.266;2022-08-02T02:59:31;3.47;;;2.80;;
10651;SDS011;5374;42.742;23.266;2022-08-02T03:02:20;4.03;;;2.80;;
10651;SDS011;5374;42.742;23.266;2022-08-02T03:05:08;3.80;;;2.80;;
10651;SDS011;5374;42.742;23.266;2022-08-02T03:07:56;4.50;;;3.00;;
10651;SDS011;5374;42.742;23.266;2022-08-02T03:10:45;4.63;;;3.10;;
10651;SDS011;5374;42.742;23.266;2022-08-02T03:13:32;4.70;;;3.10;;
10651;SDS011;5374;42.742;23.266;2022-08-02T03:16:20;3.23;;;2.93;;
10651;SDS011;5374;42.742;23.266;2022-08-02T03:19:07;3.87;;;3.23;;
10651;SDS011;5374;42.742;23.266;2022-08-02T03:21:55;6.03;;;3.40;;
10651;SDS011;5374;42.742;23.266;2022-08-02T03:24:42;3.30;;;3.00;;
10651;SDS011;5374;42.742;23.266;2022-08-02T03:27:30;5.13;;;3.17;;
10651;SDS011;5374;42.742;23.266;2022-08-02T03:30:18;4.93;;;3.20;;
10651;SDS011;5374;42.742;23.266;2022-08-02T03:33:05;5.00;;;3.30;;
10651;SDS011;5374;42.742;23.266;2022-08-02T03:35:52;3.97;;;3.40;;
10651;SDS011;5374;42.742;23.266;2022-08-02T03:38:42;3.73;;;2.90;;
10651;SDS011;5374;42.742;23.266;2022-08-02T03:41:30;4.83;;;2.97;;
10651;SDS011;5374;42.742;23.266;2022-08-02T03:44:22;5.10;;;3.33;;
10651;SDS011;5374;42.742;23.266;2022-08-02T03:47:12;4.13;;;3.30;;
10651;SDS011;5374;42.742;23.266;2022-08-02T03:49:59;3.70;;;3.10;;
10651;SDS011;5374;42.742;23.266;2022-08-02T03:52:47;4.60;;;3.53;;
10651;SDS011;5374;42.742;23.266;2022-08-02T03:55:35;4.93;;;3.90;;
10651;SDS011;5374;42.742;23.266;2022-08-02T03:58:23;4.70;;;3.83;;
10651;SDS011;5374;42.742;23.266;2022-08-02T04:01:12;4.30;;;3.90;;
10651;SDS011;5374;42.742;23.266;2022-08-02T04:03:59;7.63;;;5.60;;
10651;SDS011;5374;42.742;23.266;2022-08-02T04:06:46;7.20;;;5.17;;
10651;SDS011;5374;42.742;23.266;2022-08-02T04:09:33;6.20;;;5.60;;
10651;SDS011;5374;42.742;23.266;2022-08-02T04:12:20;6.67;;;5.13;;
10651;SDS011;5374;42.742;23.266;2022-08-02T04:15:08;12.17;;;5.63;;
10651;SDS011;5374;42.742;23.266;2022-08-02T04:17:59;10.33;;;5.10;;
10651;SDS011;5374;42.742;23.266;2022-08-02T04:20:48;6.57;;;4.30;;
10651;SDS011;5374;42.742;23.266;2022-08-02T04:23:38;7.53;;;3.43;;
10651;SDS011;5374;42.742;23.266;2022-08-02T04:26:27;5.77;;;3.33;;
10651;SDS011;5374;42.742;23.266;2022-08-02T04:29:15;3.23;;;2.80;;
10651;SDS011;5374;42.742;23.266;2022-08-02T04:32:04;3.23;;;2.60;;
10651;SDS011;5374;42.742;23.266;2022-08-02T04:34:54;5.93;;;3.00;;
10651;SDS011;5374;42.742;23.266;2022-08-02T04:37:42;2.63;;;2.43;;
10651;SDS011;5374;42.742;23.266;2022-08-02T04:40:31;4.60;;;2.40;;
10651;SDS011;5374;42.742;23.266;2022-08-02T04:43:19;5.23;;;2.53;;
10651;SDS011;5374;42.742;23.266;2022-08-02T04:46:06;2.97;;;2.67;;
10651;SDS011;5374;42.742;23.266;2022-08-02T04:48:53;4.33;;;2.93;;
10651;SDS011;5374;42.742;23.266;2022-08-02T04:51:42;4.07;;;2.77;;
10651;SDS011;5374;42.742;23.266;2022-08-02T04:54:29;7.17;;;3.23;;
10651;SDS011;5374;42.742;23.266;2022-08-02T04:57:16;4.07;;;2.90;;
10651;SDS011;5374;42.742;23.266;2022-08-02T05:00:21;5.43;;;3.53;;
10651;SDS011;5374;42.742;23.266;2022-08-02T05:03:09;7.00;;;3.03;;
10651;SDS011;5374;42.742;23.266;2022-08-02T05:05:56;3.70;;;2.90;;
10651;SDS011;5374;42.742;23.266;2022-08-02T05:08:46;4.28;;;2.95;;
10651;SDS011;5374;42.742;23.266;2022-08-02T05:11:34;4.18;;;2.47;;
10651;SDS011;5374;42.742;23.266;2022-08-02T05:14:21;4.63;;;3.50;;
10651;SDS011;5374;42.742;23.266;2022-08-02T05:17:09;4.57;;;3.10;;
10651;SDS011;5374;42.742;23.266;2022-08-02T05:19:56;6.32;;;3.35;;
10651;SDS011;5374;42.742;23.266;2022-08-02T05:22:43;4.93;;;3.30;;
10651;SDS011;5374;42.742;23.266;2022-08-02T05:25:32;8.18;;;3.78;;
10651;SDS011;5374;42.742;23.266;2022-08-02T05:28:19;5.78;;;3.70;;
10651;SDS011;5374;42.742;23.266;2022-08-02T05:31:07;4.45;;;3.28;;
10651;SDS011;5374;42.742;23.266;2022-08-02T05:33:54;6.95;;;3.55;;
10651;SDS011;5374;42.742;23.266;2022-08-02T05:36:41;3.95;;;3.30;;
10651;SDS011;5374;42.742;23.266;2022-08-02T05:39:29;5.28;;;3.50;;
10651;SDS011;5374;42.742;23.266;2022-08-02T05:42:17;4.72;;;3.50;;
10651;SDS011;5374;42.742;23.266;2022-08-02T05:45:05;4.88;;;3.42;;
10651;SDS011;5374;42.742;23.266;2022-08-02T05:47:52;4.82;;;3.85;;
10651;SDS011;5374;42.742;23.266;2022-08-02T05:50:41;5.55;;;3.50;;
10651;SDS011;5374;42.742;23.266;2022-08-02T05:53:34;4.30;;;3.80;;
10651;SDS011;5374;42.742;23.266;2022-08-02T05:56:24;5.60;;;4.22;;
10651;SDS011;5374;42.742;23.266;2022-08-02T05:59:22;5.07;;;3.60;;
10651;SDS011;5374;42.742;23.266;2022-08-02T06:02:17;5.30;;;3.70;;
10651;SDS011;5374;42.742;23.266;2022-08-02T06:05:14;6.43;;;3.95;;
10651;SDS011;5374;42.742;23.266;2022-08-02T06:08:03;5.60;;;4.15;;
10651;SDS011;5374;42.742;23.266;2022-08-02T06:10:54;5.20;;;4.15;;
10651;SDS011;5374;42.742;23.266;2022-08-02T06:13:42;7.32;;;3.53;;
10651;SDS011;5374;42.742;23.266;2022-08-02T06:16:33;3.50;;;3.20;;
10651;SDS011;5374;42.742;23.266;2022-08-02T06:19:20;3.47;;;2.90;;
10651;SDS011;5374;42.742;23.266;2022-08-02T06:22:09;3.97;;;3.00;;
10651;SDS011;5374;42.742;23.266;2022-08-02T06:25:02;7.37;;;3.57;;
10651;SDS011;5374;42.742;23.266;2022-08-02T06:27:51;5.73;;;3.33;;
10651;SDS011;5374;42.742;23.266;2022-08-02T06:30:39;4.90;;;3.30;;
10651;SDS011;5374;42.742;23.266;2022-08-02T06:33:28;3.37;;;2.90;;
10651;SDS011;5374;42.742;23.266;2022-08-02T06:36:16;3.17;;;2.87;;
10651;SDS011;5374;42.742;23.266;2022-08-02T06:39:10;4.87;;;3.10;;
10651;SDS011;5374;42.742;23.266;2022-08-02T06:42:05;4.30;;;2.77;;
10651;SDS011;5374;42.742;23.266;2022-08-02T06:44:57;3.53;;;2.30;;
10651;SDS011;5374;42.742;23.266;2022-08-02T06:47:45;4.50;;;2.70;;
10651;SDS011;5374;42.742;23.266;2022-08-02T06:50:33;3.60;;;3.03;;
10651;SDS011;5374;42.742;23.266;2022-08-02T06:53:22;3.00;;;2.70;;
10651;SDS011;5374;42.742;23.266;2022-08-02T06:56:09;3.10;;;2.60;;
10651;SDS011;5374;42.742;23.266;2022-08-02T06:58:57;3.73;;;2.30;;
10651;SDS011;5374;42.742;23.266;2022-08-02T07:01:44;3.73;;;2.80;;
10651;SDS011;5374;42.742;23.266;2022-08-02T07:04:33;5.03;;;3.33;;
10651;SDS011;5374;42.742;23.266;2022-08-02T07:07:21;3.00;;;2.10;;
10651;SDS011;5374;42.742;23.266;2022-08-02T07:10:09;2.83;;;2.10;;
10651;SDS011;5374;42.742;23.266;2022-08-02T07:12:57;3.00;;;1.97;;
10651;SDS011;5374;42.742;23.266;2022-08-02T07:15:46;5.83;;;1.93;;
10651;SDS011;5374;42.742;23.266;2022-08-02T07:18:34;2.43;;;2.23;;
10651;SDS011;5374;42.742;23.266;2022-08-02T07:21:21;3.10;;;2.80;;
10651;SDS011;5374;42.742;23.266;2022-08-02T07:24:10;3.03;;;2.10;;
10651;SDS011;5374;42.742;23.266;2022-08-02T07:26:57;2.87;;;1.90;;
10651;SDS011;5374;42.742;23.266;2022-08-02T07:29:45;5.60;;;2.20;;
10651;SDS011;5374;42.742;23.266;2022-08-02T07:32:32;2.43;;;2.20;;
10651;SDS011;5374;42.742;23.266;2022-08-02T07:35:19;4.73;;;2.27;;
10651;SDS011;5374;42.742;23.266;2022-08-02T07:38:06;2.00;;;1.77;;
10651;SDS011;5374;42.742;23.266;2022-08-02T07:40:55;3.20;;;2.10;;
10651;SDS011;5374;42.742;23.266;2022-08-02T07:43:42;3.70;;;3.40;;
10651;SDS011;5374;42.742;23.266;2022-08-02T07:46:29;3.50;;;2.50;;
10651;SDS011;5374;42.742;23.266;2022-08-02T07:49:17;1.70;;;1.60;;
10651;SDS011;5374;42.742;23.266;2022-08-02T07:52:04;3.60;;;1.87;;
10651;SDS011;5374;42.742;23.266;2022-08-02T07:54:51;3.30;;;2.30;;
10651;SDS011;5374;42.742;23.266;2022-08-02T07:57:40;1.83;;;1.57;;
10651;SDS011;5374;42.742;23.266;2022-08-02T08:00:28;2.60;;;1.70;;
10651;SDS011;5374;42.742;23.266;2022-08-02T08:03:16;1.67;;;1.57;;
10651;SDS011;5374;42.742;23.266;2022-08-02T08:06:04;2.43;;;1.50;;
10651;SDS011;5374;42.742;23.266;2022-08-02T08:08:51;3.00;;;1.70;;
10651;SDS011;5374;42.742;23.266;2022-08-02T08:11:39;1.57;;;1.47;;
10651;SDS011;5374;42.742;23.266;2022-08-02T08:14:28;3.00;;;2.27;;
10651;SDS011;5374;42.742;23.266;2022-08-02T08:17:15;2.27;;;1.47;;
10651;SDS011;5374;42.742;23.266;2022-08-02T08:20:03;2.60;;;1.47;;
10651;SDS011;5374;42.742;23.266;2022-08-02T08:22:51;2.33;;;1.30;;
10651;SDS011;5374;42.742;23.266;2022-08-02T08:25:38;1.63;;;1.50;;
10651;SDS011;5374;42.742;23.266;2022-08-02T08:28:25;1.70;;;1.37;;
10651;SDS011;5374;42.742;23.266;2022-08-02T08:31:14;1.93;;;1.57;;
10651;SDS011;5374;42.742;23.266;2022-08-02T08:34:01;2.50;;;1.50;;
10651;SDS011;5374;42.742;23.266;2022-08-02T08:36:49;1.60;;;1.40;;
10651;SDS011;5374;42.742;23.266;2022-08-02T08:39:36;1.70;;;1.50;;
10651;SDS011;5374;42.742;23.266;2022-08-02T08:42:23;2.90;;;1.53;;
10651;SDS011;5374;42.742;23.266;2022-08-02T08:45:10;1.57;;;1.47;;
10651;SDS011;5374;42.742;23.266;2022-08-02T08:48:01;3.50;;;1.53;;
10651;SDS011;5374;42.742;23.266;2022-08-02T08:50:59;2.33;;;1.37;;
10651;SDS011;5374;42.742;23.266;2022-08-02T08:53:50;1.50;;;1.40;;
10651;SDS011;5374;42.742;23.266;2022-08-02T08:56:43;1.37;;;1.27;;
10651;SDS011;5374;42.742;23.266;2022-08-02T08:59:31;2.20;;;1.50;;
10651;SDS011;5374;42.742;23.266;2022-08-02T09:02:18;1.77;;;1.30;;
10651;SDS011;5374;42.742;23.266;2022-08-02T09:05:09;1.97;;;1.60;;
10651;SDS011;5374;42.742;23.266;2022-08-02T09:07:57;1.90;;;1.40;;
10651;SDS011;5374;42.742;23.266;2022-08-02T09:10:44;1.40;;;1.20;;
10651;SDS011;5374;42.742;23.266;2022-08-02T09:13:32;1.50;;;1.40;;
10651;SDS011;5374;42.742;23.266;2022-08-02T09:16:26;1.47;;;1.37;;
10651;SDS011;5374;42.742;23.266;2022-08-02T09:19:16;2.83;;;1.50;;
10651;SDS011;5374;42.742;23.266;2022-08-02T09:22:06;2.00;;;1.30;;
10651;SDS011;5374;42.742;23.266;2022-08-02T09:24:55;1.57;;;1.43;;
10651;SDS011;5374;42.742;23.266;2022-08-02T09:27:42;3.27;;;1.57;;
10651;SDS011;5374;42.742;23.266;2022-08-02T09:30:33;1.67;;;1.53;;
10651;SDS011;5374;42.742;23.266;2022-08-02T09:33:28;1.30;;;1.20;;
10651;SDS011;5374;42.742;23.266;2022-08-02T09:36:15;1.47;;;1.37;;
10651;SDS011;5374;42.742;23.266;2022-08-02T09:39:05;1.47;;;1.37;;
10651;SDS011;5374;42.742;23.266;2022-08-02T09:41:54;1.50;;;1.27;;
10651;SDS011;5374;42.742;23.266;2022-08-02T09:44:54;1.90;;;1.40;;
10651;SDS011;5374;42.742;23.266;2022-08-02T09:47:43;1.83;;;1.40;;
10651;SDS011;5374;42.742;23.266;2022-08-02T09:50:34;2.23;;;1.53;;
10651;SDS011;5374;42.742;23.266;2022-08-02T09:53:24;2.43;;;1.80;;
10651;SDS011;5374;42.742;23.266;2022-08-02T09:56:13;1.40;;;1.30;;
10651;SDS011;5374;42.742;23.266;2022-08-02T09:59:05;1.80;;;1.20;;
10651;SDS011;5374;42.742;23.266;2022-08-02T10:01:53;1.97;;;1.20;;
10651;SDS011;5374;42.742;23.266;2022-08-02T10:04:41;1.37;;;1.27;;
10651;SDS011;5374;42.742;23.266;2022-08-02T10:07:28;1.10;;;1.00;;
10651;SDS011;5374;42.742;23.266;2022-08-02T10:10:16;1.33;;;1.23;;
10651;SDS011;5374;42.742;23.266;2022-08-02T10:13:05;1.40;;;1.23;;
10651;SDS011;5374;42.742;23.266;2022-08-02T10:15:53;1.43;;;1.20;;
10651;SDS011;5374;42.742;23.266;2022-08-02T10:18:41;1.23;;;1.13;;
10651;SDS011;5374;42.742;23.266;2022-08-02T10:21:30;4.97;;;1.43;;
10651;SDS011;5374;42.742;23.266;2022-08-02T10:24:21;1.63;;;1.23;;
10651;SDS011;5374;42.742;23.266;2022-08-02T10:27:13;2.03;;;1.40;;
10651;SDS011;5374;42.742;23.266;2022-08-02T10:30:03;1.20;;;1.10;;
10651;SDS011;5374;42.742;23.266;2022-08-02T10:32:53;2.33;;;1.30;;
10651;SDS011;5374;42.742;23.266;2022-08-02T10:35:43;1.83;;;1.00;;
10651;SDS011;5374;42.742;23.266;2022-08-02T10:38:33;1.30;;;1.10;;
10651;SDS011;5374;42.742;23.266;2022-08-02T10:41:43;1.33;;;1.07;;
10651;SDS011;5374;42.742;23.266;2022-08-02T10:44:32;1.10;;;1.00;;
10651;SDS011;5374;42.742;23.266;2022-08-02T10:47:23;1.20;;;1.10;;
10651;SDS011;5374;42.742;23.266;2022-08-02T10:50:11;2.70;;;1.10;;
10651;SDS011;5374;42.742;23.266;2022-08-02T10:56:10;2.40;;;1.20;;
10651;SDS011;5374;42.742;23.266;2022-08-02T10:59:16;1.10;;;1.00;;
10651;SDS011;5374;42.742;23.266;2022-08-02T11:02:10;1.00;;;0.90;;
10651;SDS011;5374;42.742;23.266;2022-08-02T11:05:04;0.80;;;0.80;;
10651;SDS011;5374;42.742;23.266;2022-08-02T11:07:53;1.17;;;0.97;;
10651;SDS011;5374;42.742;23.266;2022-08-02T11:10:40;2.70;;;1.10;;
10651;SDS011;5374;42.742;23.266;2022-08-02T11:13:27;1.20;;;1.10;;
10651;SDS011;5374;42.742;23.266;2022-08-02T11:16:15;0.90;;;0.90;;
10651;SDS011;5374;42.742;23.266;2022-08-02T11:19:03;1.00;;;0.83;;
10651;SDS011;5374;42.742;23.266;2022-08-02T11:22:00;3.40;;;1.27;;
10651;SDS011;5374;42.742;23.266;2022-08-02T11:24:48;0.97;;;0.97;;
10651;SDS011;5374;42.742;23.266;2022-08-02T11:27:35;1.10;;;1.00;;
10651;SDS011;5374;42.742;23.266;2022-08-02T11:30:23;1.33;;;1.23;;
10651;SDS011;5374;42.742;23.266;2022-08-02T11:33:11;1.10;;;1.00;;
10651;SDS011;5374;42.742;23.266;2022-08-02T11:36:02;1.03;;;0.93;;
10651;SDS011;5374;42.742;23.266;2022-08-02T11:41:58;1.00;;;0.90;;
10651;SDS011;5374;42.742;23.266;2022-08-02T11:44:46;2.07;;;0.90;;
10651;SDS011;5374;42.742;23.266;2022-08-02T11:47:44;1.10;;;1.00;;
10651;SDS011;5374;42.742;23.266;2022-08-02T11:50:31;0.80;;;0.80;;
10651;SDS011;5374;42.742;23.266;2022-08-02T11:53:18;2.43;;;1.00;;
10651;SDS011;5374;42.742;23.266;2022-08-02T11:56:07;1.13;;;0.93;;
10651;SDS011;5374;42.742;23.266;2022-08-02T11:59:05;1.40;;;0.80;;
10651;SDS011;5374;42.742;23.266;2022-08-02T12:01:55;0.83;;;0.83;;
10651;SDS011;5374;42.742;23.266;2022-08-02T12:04:42;1.90;;;1.00;;
10651;SDS011;5374;42.742;23.266;2022-08-02T12:07:37;1.10;;;1.00;;
10651;SDS011;5374;42.742;23.266;2022-08-02T12:10:25;1.00;;;0.90;;
10651;SDS011;5374;42.742;23.266;2022-08-02T12:13:13;1.10;;;1.00;;
10651;SDS011;5374;42.742;23.266;2022-08-02T12:16:08;1.03;;;0.90;;
10651;SDS011;5374;42.742;23.266;2022-08-02T12:19:12;0.80;;;0.80;;
10651;SDS011;5374;42.742;23.266;2022-08-02T12:22:08;1.20;;;1.10;;
10651;SDS011;5374;42.742;23.266;2022-08-02T12:24:58;1.13;;;1.00;;
10651;SDS011;5374;42.742;23.266;2022-08-02T12:28:17;2.00;;;0.97;;
10651;SDS011;5374;42.742;23.266;2022-08-02T12:31:07;1.30;;;0.97;;
10651;SDS011;5374;42.742;23.266;2022-08-02T12:33:56;1.00;;;0.90;;
10651;SDS011;5374;42.742;23.266;2022-08-02T12:36:44;0.93;;;0.90;;
10651;SDS011;5374;42.742;23.266;2022-08-02T12:39:44;0.90;;;0.90;;
10651;SDS011;5374;42.742;23.266;2022-08-02T12:42:44;1.10;;;1.00;;
10651;SDS011;5374;42.742;23.266;2022-08-02T12:45:43;1.20;;;1.10;;
10651;SDS011;5374;42.742;23.266;2022-08-02T12:48:33;1.40;;;1.20;;
10651;SDS011;5374;42.742;23.266;2022-08-02T12:51:23;1.40;;;1.30;;
10651;SDS011;5374;42.742;23.266;2022-08-02T12:54:13;1.60;;;1.30;;
10651;SDS011;5374;42.742;23.266;2022-08-02T12:57:09;1.20;;;1.10;;
10651;SDS011;5374;42.742;23.266;2022-08-02T12:59:57;1.33;;;1.00;;
10651;SDS011;5374;42.742;23.266;2022-08-02T13:02:48;1.40;;;1.30;;
10651;SDS011;5374;42.742;23.266;2022-08-02T13:05:35;1.87;;;1.00;;
10651;SDS011;5374;42.742;23.266;2022-08-02T13:08:23;2.33;;;1.20;;
10651;SDS011;5374;42.742;23.266;2022-08-02T13:11:10;1.93;;;1.30;;
10651;SDS011;5374;42.742;23.266;2022-08-02T13:13:57;1.00;;;0.90;;
10651;SDS011;5374;42.742;23.266;2022-08-02T13:16:45;0.80;;;0.80;;
10651;SDS011;5374;42.742;23.266;2022-08-02T13:19:35;1.77;;;0.93;;
10651;SDS011;5374;42.742;23.266;2022-08-02T13:22:22;3.33;;;2.50;;
10651;SDS011;5374;42.742;23.266;2022-08-02T13:25:09;2.00;;;1.60;;
10651;SDS011;5374;42.742;23.266;2022-08-02T13:27:57;1.53;;;0.90;;
10651;SDS011;5374;42.742;23.266;2022-08-02T13:30:44;1.70;;;1.30;;
10651;SDS011;5374;42.742;23.266;2022-08-02T13:33:31;1.10;;;0.90;;
10651;SDS011;5374;42.742;23.266;2022-08-02T13:36:20;3.07;;;1.07;;
10651;SDS011;5374;42.742;23.266;2022-08-02T13:39:07;1.03;;;0.93;;
10651;SDS011;5374;42.742;23.266;2022-08-02T13:41:56;2.17;;;1.20;;
10651;SDS011;5374;42.742;23.266;2022-08-02T13:44:43;0.90;;;0.80;;
10651;SDS011;5374;42.742;23.266;2022-08-02T13:47:30;1.27;;;1.00;;
10651;SDS011;5374;42.742;23.266;2022-08-02T13:50:17;1.00;;;0.90;;
10651;SDS011;5374;42.742;23.266;2022-08-02T13:53:06;1.23;;;0.90;;
10651;SDS011;5374;42.742;23.266;2022-08-02T13:55:53;1.20;;;1.10;;
10651;SDS011;5374;42.742;23.266;2022-08-02T13:58:42;1.23;;;0.80;;
10651;SDS011;5374;42.742;23.266;2022-08-02T14:01:29;1.10;;;1.00;;
10651;SDS011;5374;42.742;23.266;2022-08-02T14:04:17;1.10;;;0.87;;
10651;SDS011;5374;42.742;23.266;2022-08-02T14:07:05;0.90;;;0.80;;
10651;SDS011;5374;42.742;23.266;2022-08-02T14:09:53;1.00;;;0.90;;
10651;SDS011;5374;42.742;23.266;2022-08-02T14:12:40;0.90;;;0.90;;
10651;SDS011;5374;42.742;23.266;2022-08-02T14:15:27;1.00;;;0.90;;
10651;SDS011;5374;42.742;23.266;2022-08-02T14:18:20;0.90;;;0.90;;
10651;SDS011;5374;42.742;23.266;2022-08-02T14:21:07;1.37;;;1.03;;
10651;SDS011;5374;42.742;23.266;2022-08-02T14:23:54;2.70;;;1.13;;
10651;SDS011;5374;42.742;23.266;2022-08-02T14:26:43;2.27;;;1.00;;
10651;SDS011;5374;42.742;23.266;2022-08-02T14:29:30;1.90;;;1.00;;
10651;SDS011;5374;42.742;23.266;2022-08-02T14:32:17;1.80;;;1.20;;
10651;SDS011;5374;42.742;23.266;2022-08-02T14:35:10;2.50;;;1.20;;
10651;SDS011;5374;42.742;23.266;2022-08-02T14:37:58;5.07;;;1.10;;
10651;SDS011;5374;42.742;23.266;2022-08-02T14:40:45;2.30;;;1.23;;
10651;SDS011;5374;42.742;23.266;2022-08-02T14:43:34;4.10;;;1.17;;
10651;SDS011;5374;42.742;23.266;2022-08-02T14:46:38;1.10;;;0.90;;
10651;SDS011;5374;42.742;23.266;2022-08-02T14:49:26;1.37;;;1.10;;
10651;SDS011;5374;42.742;23.266;2022-08-02T14:52:13;1.00;;;0.90;;
10651;SDS011;5374;42.742;23.266;2022-08-02T14:55:01;0.90;;;0.80;;
10651;SDS011;5374;42.742;23.266;2022-08-02T14:57:50;1.30;;;1.20;;
10651;SDS011;5374;42.742;23.266;2022-08-02T15:00:38;4.30;;;1.40;;
10651;SDS011;5374;42.742;23.266;2022-08-02T15:03:25;1.50;;;1.30;;
10651;SDS011;5374;42.742;23.266;2022-08-02T15:06:13;1.83;;;1.50;;
10651;SDS011;5374;42.742;23.266;2022-08-02T15:09:00;2.77;;;1.70;;
10651;SDS011;5374;42.742;23.266;2022-08-02T15:11:47;4.13;;;1.67;;
10651;SDS011;5374;42.742;23.266;2022-08-02T15:14:34;3.13;;;2.10;;
10651;SDS011;5374;42.742;23.266;2022-08-02T15:17:23;2.20;;;2.00;;
10651;SDS011;5374;42.742;23.266;2022-08-02T15:20:10;2.70;;;2.30;;
10651;SDS011;5374;42.742;23.266;2022-08-02T15:22:58;1.63;;;1.37;;
10651;SDS011;5374;42.742;23.266;2022-08-02T15:25:47;1.23;;;1.10;;
10651;SDS011;5374;42.742;23.266;2022-08-02T15:28:34;1.10;;;1.00;;
10651;SDS011;5374;42.742;23.266;2022-08-02T15:31:22;2.47;;;1.10;;
10651;SDS011;5374;42.742;23.266;2022-08-02T15:34:11;1.30;;;1.20;;
10651;SDS011;5374;42.742;23.266;2022-08-02T15:36:58;1.60;;;1.30;;
10651;SDS011;5374;42.742;23.266;2022-08-02T15:39:46;1.80;;;1.37;;
10651;SDS011;5374;42.742;23.266;2022-08-02T15:42:36;1.40;;;1.30;;
10651;SDS011;5374;42.742;23.266;2022-08-02T15:45:28;1.10;;;1.00;;
10651;SDS011;5374;42.742;23.266;2022-08-02T15:48:15;1.20;;;1.10;;
10651;SDS011;5374;42.742;23.266;2022-08-02T15:51:04;4.90;;;1.80;;
10651;SDS011;5374;42.742;23.266;2022-08-02T15:53:51;2.10;;;1.50;;
10651;SDS011;5374;42.742;23.266;2022-08-02T15:56:38;2.40;;;1.50;;
10651;SDS011;5374;42.742;23.266;2022-08-02T15:59:25;2.17;;;1.20;;
10651;SDS011;5374;42.742;23.266;2022-08-02T16:02:12;3.17;;;1.53;;
10651;SDS011;5374;42.742;23.266;2022-08-02T16:05:00;1.20;;;1.00;;
10651;SDS011;5374;42.742;23.266;2022-08-02T16:07:49;1.30;;;1.20;;
10651;SDS011;5374;42.742;23.266;2022-08-02T16:10:37;1.57;;;1.23;;
10651;SDS011;5374;42.742;23.266;2022-08-02T16:13:26;2.23;;;1.27;;
10651;SDS011;5374;42.742;23.266;2022-08-02T16:16:31;2.77;;;1.40;;
10651;SDS011;5374;42.742;23.266;2022-08-02T16:19:20;2.33;;;1.30;;
10651;SDS011;5374;42.742;23.266;2022-08-02T16:22:08;1.23;;;1.13;;
10651;SDS011;5374;42.742;23.266;2022-08-02T16:24:57;1.97;;;1.30;;
10651;SDS011;5374;42.742;23.266;2022-08-02T16:27:45;1.33;;;0.90;;
10651;SDS011;5374;42.742;23.266;2022-08-02T16:30:32;1.47;;;0.90;;
10651;SDS011;5374;42.742;23.266;2022-08-02T16:33:20;1.00;;;0.90;;
10651;SDS011;5374;42.742;23.266;2022-08-02T16:36:07;1.30;;;0.90;;
10651;SDS011;5374;42.742;23.266;2022-08-02T16:38:56;1.20;;;0.90;;
10651;SDS011;5374;42.742;23.266;2022-08-02T16:41:45;1.20;;;0.90;;
10651;SDS011;5374;42.742;23.266;2022-08-02T16:44:32;3.30;;;0.97;;
10651;SDS011;5374;42.742;23.266;2022-08-02T16:47:19;1.40;;;0.80;;
10651;SDS011;5374;42.742;23.266;2022-08-02T16:50:07;2.63;;;1.23;;
10651;SDS011;5374;42.742;23.266;2022-08-02T16:52:55;0.70;;;0.70;;
10651;SDS011;5374;42.742;23.266;2022-08-02T16:55:42;1.30;;;0.80;;
10651;SDS011;5374;42.742;23.266;2022-08-02T16:58:31;1.00;;;0.90;;
10651;SDS011;5374;42.742;23.266;2022-08-02T17:01:18;3.80;;;1.10;;
10651;SDS011;5374;42.742;23.266;2022-08-02T17:04:05;1.07;;;0.97;;
10651;SDS011;5374;42.742;23.266;2022-08-02T17:06:52;1.43;;;1.23;;
10651;SDS011;5374;42.742;23.266;2022-08-02T17:09:39;1.83;;;1.20;;
10651;SDS011;5374;42.742;23.266;2022-08-02T17:12:27;1.47;;;0.90;;
10651;SDS011;5374;42.742;23.266;2022-08-02T17:15:15;1.20;;;0.87;;